Time;durP1;ratioP1;P1;durP2;ratioP2;P2;SDS_P1;SDS_P2;PMS_P1;PMS_P2;Temp;Humidity;BMP_temperature;BMP_pressure;BME280_temperature;BME280_humidity;BME280_pressure;Samples;Min_cycle;Max_cycle;Signal;HPM_P1;HPM_P2
2022/05/23 00:00:33;;;;;;;6.13;2.72;;;;;;;;;;7391501;19;20030;-60
2022/05/23 00:03:01;;;;;;;7.47;2.70;;;;;;;;;;7392387;19;20416;-59
2022/05/23 00:05:29;;;;;;;4.85;2.33;;;;;;;;;;7391475;19;20038;-59
2022/05/23 00:07:59;;;;;;;6.28;2.60;;;;;;;;;;7390853;19;20011;-58
2022/05/23 00:10:27;;;;;;;5.30;2.40;;;;;;;;;;7390628;19;20019;-59
2022/05/23 00:12:58;;;;;;;6.53;2.65;;;;;;;;;;7392047;19;20029;-56
2022/05/23 00:15:27;;;;;;;6.70;2.80;;;;;;;;;;7391355;19;20022;-59
2022/05/23 00:17:56;;;;;;;7.38;2.75;;;;;;;;;;7394527;19;20010;-59
2022/05/23 00:20:26;;;;;;;5.10;2.53;;;;;;;;;;7390976;19;20018;-59
2022/05/23 00:22:55;;;;;;;4.97;2.50;;;;;;;;;;7391815;19;20006;-60
2022/05/23 00:25:26;;;;;;;4.97;2.47;;;;;;;;;;7390893;19;20027;-59
2022/05/23 00:27:55;;;;;;;5.15;2.78;;;;;;;;;;7391163;19;20026;-58
2022/05/23 00:30:27;;;;;;;7.10;2.97;;;;;;;;;;7388495;19;20011;-58
2022/05/23 00:35:37;;;;;;;7.95;3.15;;;;;;;;;;7390594;19;20097;-57
2022/05/23 00:38:05;;;;;;;4.28;2.55;;;;;;;;;;7391535;19;20636;-61
2022/05/23 00:40:38;;;;;;;7.75;3.35;;;;;;;;;;7388767;19;20479;-59
2022/05/23 00:43:14;;;;;;;7.45;3.22;;;;;;;;;;7391023;19;20015;-59
2022/05/23 00:45:46;;;;;;;6.70;2.88;;;;;;;;;;7388744;19;20471;-59
2022/05/23 00:48:15;;;;;;;7.10;3.40;;;;;;;;;;7387916;19;20034;-58
2022/05/23 00:50:47;;;;;;;5.78;2.90;;;;;;;;;;7391653;19;20517;-59
2022/05/23 00:53:15;;;;;;;9.25;3.00;;;;;;;;;;7389270;19;20029;-54
2022/05/23 00:55:47;;;;;;;7.60;3.00;;;;;;;;;;7388385;19;20026;-58
2022/05/23 00:58:16;;;;;;;;;;;;;;;;;;7390762;19;20483;-58
2022/05/23 01:00:48;;;;;;;6.90;3.20;;;;;;;;;;7389608;19;19922;-58
2022/05/23 01:03:18;;;;;;;5.32;3.05;;;;;;;;;;7389705;19;20025;-56
2022/05/23 01:05:47;;;;;;;8.68;3.30;;;;;;;;;;7389465;19;20018;-56
2022/05/23 01:08:18;;;;;;;6.95;3.00;;;;;;;;;;7387760;19;20021;-55
2022/05/23 01:10:47;;;;;;;6.82;2.88;;;;;;;;;;7388845;19;20533;-55
2022/05/23 01:13:16;;;;;;;8.75;3.50;;;;;;;;;;7391340;19;20010;-60
2022/05/23 01:15:49;;;;;;;8.55;3.38;;;;;;;;;;7389809;19;20025;-58
2022/05/23 01:18:18;;;;;;;6.18;3.20;;;;;;;;;;7388684;19;20038;-55
2022/05/23 01:20:47;;;;;;;6.60;3.28;;;;;;;;;;7389298;19;20011;-54
2022/05/23 01:23:19;;;;;;;5.10;3.10;;;;;;;;;;7393707;19;20022;-54
2022/05/23 01:26:03;;;;;;;6.82;3.08;;;;;;;;;;7395672;19;20010;-61
2022/05/23 01:28:43;;;;;;;4.60;2.90;;;;;;;;;;7394279;19;20032;-61
2022/05/23 01:31:15;;;;;;;5.82;3.40;;;;;;;;;;7395313;19;20026;-60
2022/05/23 01:33:44;;;;;;;6.05;3.10;;;;;;;;;;7395601;19;20011;-59
2022/05/23 01:36:16;;;;;;;7.88;3.60;;;;;;;;;;7394037;19;20021;-60
2022/05/23 01:38:45;;;;;;;6.95;3.47;;;;;;;;;;7397500;19;20011;-60
2022/05/23 01:41:27;;;;;;;8.45;3.30;;;;;;;;;;7392988;19;20014;-59
2022/05/23 01:44:04;;;;;;;8.85;3.80;;;;;;;;;;7395199;19;20024;-60
2022/05/23 01:46:35;;;;;;;5.60;3.33;;;;;;;;;;7392890;19;20010;-60
2022/05/23 01:49:15;;;;;;;5.40;3.25;;;;;;;;;;7392070;19;20007;-59
2022/05/23 01:51:44;;;;;;;7.90;3.53;;;;;;;;;;7396084;19;20386;-58
2022/05/23 01:54:14;;;;;;;7.18;3.35;;;;;;;;;;7396713;19;20141;-57
2022/05/23 01:56:48;;;;;;;8.63;3.30;;;;;;;;;;7397748;19;20105;-59
2022/05/23 02:02:03;;;;;;;8.63;3.63;;;;;;;;;;7394690;19;20029;-59
2022/05/23 02:04:38;;;;;;;6.95;3.53;;;;;;;;;;7393938;19;20046;-58
2022/05/23 02:07:07;;;;;;;6.80;3.78;;;;;;;;;;7391783;19;20384;-57
2022/05/23 02:09:40;;;;;;;6.05;3.28;;;;;;;;;;7391201;19;20483;-53
2022/05/23 02:12:27;;;;;;;7.97;3.60;;;;;;;;;;7394253;19;20021;-61
2022/05/23 02:14:57;;;;;;;;;;;;;;;;;;7395242;19;20011;-61
2022/05/23 02:18:03;;;;;;;6.97;3.63;;;;;;;;;;7394245;19;19930;-61
2022/05/23 02:20:32;;;;;;;5.38;3.50;;;;;;;;;;7393938;19;20078;-61
2022/05/23 02:23:01;;;;;;;8.20;3.78;;;;;;;;;;7394215;19;20018;-61
2022/05/23 02:25:30;;;;;;;6.22;3.78;;;;;;;;;;7393519;19;20014;-61
2022/05/23 02:28:04;;;;;;;6.07;3.60;;;;;;;;;;7398522;19;20503;-61
2022/05/23 02:30:43;;;;;;;7.20;3.95;;;;;;;;;;7393815;19;20007;-58
2022/05/23 02:33:27;;;;;;;6.80;3.65;;;;;;;;;;7393722;19;20475;-57
2022/05/23 02:36:10;;;;;;;5.28;3.58;;;;;;;;;;7392514;19;20554;-58
2022/05/23 02:38:38;;;;;;;5.30;3.70;;;;;;;;;;7393693;19;20022;-59
2022/05/23 02:41:07;;;;;;;8.13;3.53;;;;;;;;;;7392178;19;20070;-59
2022/05/23 02:43:42;;;;;;;7.28;3.60;;;;;;;;;;7395718;19;20082;-59
2022/05/23 02:46:11;;;;;;;8.73;4.05;;;;;;;;;;7392201;19;20019;-61
2022/05/23 02:48:40;;;;;;;7.95;4.40;;;;;;;;;;7395034;19;20081;-62
2022/05/23 02:51:09;;;;;;;7.63;3.83;;;;;;;;;;7393948;19;20097;-61
2022/05/23 02:53:37;;;;;;;8.32;4.43;;;;;;;;;;7392851;19;20180;-61
2022/05/23 02:56:06;;;;;;;6.78;4.00;;;;;;;;;;7392605;19;20343;-62
2022/05/23 02:58:35;;;;;;;6.85;4.53;;;;;;;;;;7393235;19;20015;-56
2022/05/23 03:01:06;;;;;;;8.45;4.72;;;;;;;;;;7392385;19;20360;-60
2022/05/23 03:03:35;;;;;;;7.47;4.00;;;;;;;;;;7392541;19;20101;-61
2022/05/23 03:06:07;;;;;;;9.95;4.85;;;;;;;;;;7391762;19;20018;-61
2022/05/23 03:08:36;;;;;;;6.13;4.38;;;;;;;;;;7392516;19;20010;-61
2022/05/23 03:11:07;;;;;;;6.93;3.90;;;;;;;;;;7392381;19;20015;-59
2022/05/23 03:13:37;;;;;;;7.38;4.68;;;;;;;;;;7391780;19;20074;-60
2022/05/23 03:16:11;;;;;;;7.40;4.00;;;;;;;;;;7392762;19;20037;-55
2022/05/23 03:18:43;;;;;;;10.15;3.95;;;;;;;;;;7395661;19;20018;-62
2022/05/23 03:26:58;;;;;;;6.82;4.10;;;;;;;;;;7391936;19;20010;-62
2022/05/23 03:29:24;;;;;;;6.85;4.47;;;;;;;;;;7389486;19;20015;-62
2022/05/23 03:31:55;;;;;;;6.35;4.13;;;;;;;;;;7393314;19;20019;-62
2022/05/23 03:34:23;;;;;;;7.22;4.07;;;;;;;;;;7393467;19;20343;-57
2022/05/23 03:36:52;;;;;;;9.85;4.70;;;;;;;;;;7389238;19;20019;-62
2022/05/23 03:39:21;;;;;;;6.07;4.40;;;;;;;;;;7390915;19;20052;-62
2022/05/23 03:41:53;;;;;;;7.82;4.38;;;;;;;;;;7390056;19;20143;-60
2022/05/23 03:44:22;;;;;;;8.97;4.50;;;;;;;;;;7392400;19;20070;-60
2022/05/23 03:46:51;;;;;;;7.95;4.72;;;;;;;;;;7387542;19;20015;-55
2022/05/23 03:49:22;;;;;;;5.88;4.13;;;;;;;;;;7391610;19;20018;-60
2022/05/23 03:51:58;;;;;;;8.95;4.80;;;;;;;;;;7391427;19;20056;-60
2022/05/23 03:54:27;;;;;;;8.73;4.60;;;;;;;;;;7391591;19;20018;-60
2022/05/23 03:56:59;;;;;;;7.90;5.10;;;;;;;;;;7388510;19;20019;-60
2022/05/23 03:59:28;;;;;;;10.07;5.15;;;;;;;;;;7389108;19;20014;-62
2022/05/23 04:01:58;;;;;;;9.52;4.65;;;;;;;;;;7391993;19;20018;-63
2022/05/23 04:04:37;;;;;;;9.45;5.05;;;;;;;;;;7393002;19;20023;-63
2022/05/23 04:07:24;;;;;;;9.70;4.97;;;;;;;;;;7391530;19;20022;-61
2022/05/23 04:10:05;;;;;;;8.07;5.10;;;;;;;;;;7389172;19;20021;-62
2022/05/23 04:12:34;;;;;;;7.72;5.18;;;;;;;;;;7393611;19;20515;-63
2022/05/23 04:15:02;;;;;;;8.70;5.18;;;;;;;;;;7390997;19;20010;-62
2022/05/23 04:17:32;;;;;;;8.93;5.15;;;;;;;;;;7391416;19;20520;-62
2022/05/23 04:20:03;;;;;;;8.93;5.40;;;;;;;;;;7390593;19;20014;-58
2022/05/23 04:22:34;;;;;;;9.30;5.18;;;;;;;;;;7391070;19;20014;-60
2022/05/23 04:25:09;;;;;;;10.27;5.72;;;;;;;;;;7389862;19;20018;-57
2022/05/23 04:27:38;;;;;;;7.60;5.43;;;;;;;;;;7390899;19;20043;-62
2022/05/23 04:30:10;;;;;;;12.07;6.15;;;;;;;;;;7389063;19;20025;-62
2022/05/23 04:35:31;;;;;;;9.27;5.40;;;;;;;;;;7388771;19;20053;-64
2022/05/23 04:38:01;;;;;;;8.38;5.30;;;;;;;;;;7393921;19;20014;-60
2022/05/23 04:40:39;;;;;;;8.07;5.63;;;;;;;;;;7388644;19;20463;-60
2022/05/23 04:43:09;;;;;;;8.73;5.78;;;;;;;;;;7390053;19;20010;-60
2022/05/23 04:45:37;;;;;;;10.43;5.68;;;;;;;;;;7389319;19;20409;-60
2022/05/23 04:51:02;;;;;;;11.35;6.03;;;;;;;;;;7389237;19;20010;-63
2022/05/23 04:53:37;;;;;;;7.90;5.72;;;;;;;;;;7391980;19;20022;-57
2022/05/23 04:56:14;;;;;;;10.45;5.55;;;;;;;;;;7389090;19;20010;-57
2022/05/23 04:58:42;;;;;;;10.60;5.95;;;;;;;;;;7387522;19;20025;-62
2022/05/23 05:01:11;;;;;;;7.82;6.00;;;;;;;;;;7389932;19;20475;-61
2022/05/23 05:03:40;;;;;;;10.27;6.38;;;;;;;;;;7390274;19;20018;-62
2022/05/23 05:06:11;;;;;;;8.77;6.15;;;;;;;;;;7389097;19;20018;-61
2022/05/23 05:08:40;;;;;;;7.80;5.82;;;;;;;;;;7389024;19;20014;-62
2022/05/23 05:11:09;;;;;;;9.38;6.22;;;;;;;;;;7394121;19;20377;-60
2022/05/23 05:13:38;;;;;;;11.50;7.00;;;;;;;;;;7390535;19;20123;-62
2022/05/23 05:16:09;;;;;;;9.00;6.65;;;;;;;;;;7389179;19;20050;-61
2022/05/23 05:18:41;;;;;;;9.97;6.63;;;;;;;;;;7389443;19;20510;-59
2022/05/23 05:21:44;;;;;;;11.10;7.43;;;;;;;;;;7388751;19;20623;-61
2022/05/23 05:24:32;;;;;;;11.93;6.75;;;;;;;;;;7391400;19;20025;-61
2022/05/23 05:27:24;;;;;;;10.20;7.23;;;;;;;;;;7387232;19;20473;-60
2022/05/23 05:29:54;;;;;;;8.50;7.13;;;;;;;;;;7387902;19;20018;-60
2022/05/23 05:32:26;;;;;;;10.32;7.03;;;;;;;;;;7391060;19;20023;-61
2022/05/23 05:34:58;;;;;;;13.55;7.53;;;;;;;;;;7388756;19;20079;-62
2022/05/23 05:37:33;;;;;;;11.95;7.90;;;;;;;;;;7387824;19;20403;-59
2022/05/23 05:40:03;;;;;;;10.95;7.53;;;;;;;;;;7392152;19;20079;-59
2022/05/23 05:42:34;;;;;;;12.70;7.35;;;;;;;;;;7388056;19;20019;-60
2022/05/23 05:45:07;;;;;;;9.73;7.63;;;;;;;;;;7387792;19;20011;-60
2022/05/23 05:47:37;;;;;;;12.32;7.55;;;;;;;;;;7388097;19;20014;-60
2022/05/23 05:50:09;;;;;;;12.32;8.15;;;;;;;;;;7386050;19;20360;-61
2022/05/23 05:52:55;;;;;;;13.90;7.80;;;;;;;;;;7388953;19;20035;-58
2022/05/23 05:55:24;;;;;;;14.15;8.93;;;;;;;;;;7387659;19;20015;-58
2022/05/23 05:57:55;;;;;;;12.20;8.77;;;;;;;;;;7388105;19;20014;-60
2022/05/23 06:00:24;;;;;;;12.13;8.65;;;;;;;;;;7388208;19;20018;-61
2022/05/23 06:02:56;;;;;;;12.80;8.32;;;;;;;;;;7389811;19;20032;-61
2022/05/23 06:05:27;;;;;;;14.52;8.73;;;;;;;;;;7391319;19;20074;-62
2022/05/23 06:13:51;;;;;;;10.27;8.23;;;;;;;;;;7400313;19;20076;-62
2022/05/23 06:16:37;;;;;;;13.02;9.07;;;;;;;;;;7398850;19;20017;-63
2022/05/23 06:19:10;;;;;;;12.50;9.73;;;;;;;;;;7399927;19;20010;-60
2022/05/23 06:21:49;;;;;;;14.85;9.40;;;;;;;;;;7397116;19;20018;-61
2022/05/23 06:24:20;;;;;;;14.05;8.88;;;;;;;;;;7395673;19;20016;-59
2022/05/23 06:26:51;;;;;;;13.02;8.90;;;;;;;;;;7395016;19;20373;-58
2022/05/23 06:29:33;;;;;;;15.43;9.10;;;;;;;;;;7394393;19;20051;-62
2022/05/23 06:32:20;;;;;;;12.75;9.02;;;;;;;;;;7397242;19;20010;-63
2022/05/23 06:34:49;;;;;;;14.27;8.55;;;;;;;;;;7396192;19;20029;-63
2022/05/23 06:37:17;;;;;;;15.63;9.43;;;;;;;;;;7394181;19;20019;-58
2022/05/23 06:39:49;;;;;;;12.20;8.68;;;;;;;;;;7394822;19;20014;-63
2022/05/23 06:42:26;;;;;;;13.63;9.27;;;;;;;;;;7400633;19;20341;-61
2022/05/23 06:45:13;;;;;;;17.50;10.13;;;;;;;;;;7396646;19;20055;-62
2022/05/23 06:48:17;;;;;;;13.63;9.65;;;;;;;;;;7397036;19;20033;-61
2022/05/23 06:50:51;;;;;;;12.40;9.35;;;;;;;;;;7393339;19;20013;-63
2022/05/23 06:53:23;;;;;;;13.73;10.40;;;;;;;;;;7395559;19;20014;-62
2022/05/23 06:56:14;;;;;;;17.95;10.20;;;;;;;;;;7393425;19;20510;-63
2022/05/23 06:58:46;;;;;;;13.15;10.02;;;;;;;;;;7400067;19;20051;-62
2022/05/23 07:01:27;;;;;;;13.55;9.82;;;;;;;;;;7394684;19;20014;-62
2022/05/23 07:04:14;;;;;;;17.25;10.30;;;;;;;;;;7396550;19;20027;-62
2022/05/23 07:12:28;;;;;;;13.77;9.75;;;;;;;;;;7393507;19;20014;-62
2022/05/23 07:14:59;;;;;;;14.40;9.75;;;;;;;;;;7398022;19;20014;-62
2022/05/23 07:17:30;;;;;;;12.40;8.68;;;;;;;;;;7392707;19;20042;-61
2022/05/23 07:20:16;;;;;;;16.35;9.85;;;;;;;;;;7392088;19;20007;-63
2022/05/23 07:22:58;;;;;;;14.73;9.23;;;;;;;;;;7397021;19;20018;-63
2022/05/23 07:25:29;;;;;;;13.23;8.98;;;;;;;;;;7393075;19;20025;-63
2022/05/23 07:28:00;;;;;;;13.25;9.32;;;;;;;;;;7394353;19;20527;-62
2022/05/23 07:30:29;;;;;;;11.70;8.57;;;;;;;;;;7395109;19;20019;-61
2022/05/23 07:33:00;;;;;;;14.68;8.82;;;;;;;;;;7394671;19;20026;-62
2022/05/23 07:35:47;;;;;;;13.32;8.50;;;;;;;;;;7395163;19;20039;-62
2022/05/23 07:38:16;;;;;;;10.32;7.53;;;;;;;;;;7393840;19;20047;-61
2022/05/23 07:40:46;;;;;;;11.02;7.45;;;;;;;;;;7391714;19;20011;-64
2022/05/23 07:43:22;;;;;;;10.43;7.22;;;;;;;;;;7394352;19;20026;-62
2022/05/23 07:45:52;;;;;;;11.40;7.25;;;;;;;;;;7393282;19;20010;-61
2022/05/23 07:48:22;;;;;;;14.10;6.45;;;;;;;;;;7393791;19;20010;-61
2022/05/23 07:50:52;;;;;;;9.98;6.13;;;;;;;;;;7390825;19;20010;-59
2022/05/23 08:01:56;;;;;;;9.20;5.00;;;;;;;;;;7391974;19;20378;-62
2022/05/23 08:04:25;;;;;;;7.07;4.85;;;;;;;;;;7397308;19;20052;-62
2022/05/23 08:06:55;;;;;;;8.27;5.72;;;;;;;;;;7392006;19;20480;-61
2022/05/23 08:09:25;;;;;;;9.80;5.70;;;;;;;;;;7392485;19;20115;-64
2022/05/23 08:12:06;;;;;;;9.15;5.05;;;;;;;;;;7393231;19;20518;-62
2022/05/23 08:14:38;;;;;;;9.25;5.75;;;;;;;;;;7393149;19;20022;-62
2022/05/23 08:17:16;;;;;;;9.90;5.82;;;;;;;;;;7391455;19;20018;-62
2022/05/23 08:19:45;;;;;;;11.38;5.80;;;;;;;;;;7394083;19;20081;-63
2022/05/23 08:22:36;;;;;;;11.77;5.55;;;;;;;;;;7392327;19;20033;-61
2022/05/23 08:25:24;;;;;;;12.80;6.57;;;;;;;;;;7392407;19;20022;-61
2022/05/23 08:27:57;;;;;;;9.30;5.68;;;;;;;;;;7392631;19;20026;-60
2022/05/23 08:30:30;;;;;;;9.48;5.80;;;;;;;;;;7390678;19;20482;-55
2022/05/23 08:33:31;;;;;;;8.02;6.10;;;;;;;;;;7392057;19;20034;-62
2022/05/23 08:36:16;;;;;;;9.95;5.78;;;;;;;;;;7391208;19;20025;-61
2022/05/23 08:38:45;;;;;;;12.35;6.10;;;;;;;;;;7391401;19;20006;-60
2022/05/23 08:41:29;;;;;;;17.70;6.82;;;;;;;;;;7391755;19;20010;-63
2022/05/23 08:44:12;;;;;;;10.20;6.50;;;;;;;;;;7391801;19;20022;-63
2022/05/23 08:47:05;;;;;;;12.82;6.55;;;;;;;;;;7390485;19;20014;-60
2022/05/23 08:49:42;;;;;;;9.88;5.78;;;;;;;;;;7390735;19;20015;-63
2022/05/23 08:52:13;;;;;;;9.90;6.22;;;;;;;;;;7391753;19;20349;-63
2022/05/23 08:54:46;;;;;;;10.32;6.60;;;;;;;;;;7391924;19;20014;-61
2022/05/23 08:57:41;;;;;;;8.98;5.75;;;;;;;;;;7393435;19;20017;-65
2022/05/23 09:00:11;;;;;;;8.45;6.10;;;;;;;;;;7391160;19;20024;-61
2022/05/23 09:02:50;;;;;;;10.07;6.70;;;;;;;;;;7391878;19;20007;-63
2022/05/23 09:05:32;;;;;;;39.63;9.13;;;;;;;;;;7391466;19;20037;-60
2022/05/23 09:08:02;;;;;;;13.23;7.43;;;;;;;;;;7392488;19;20086;-60
2022/05/23 09:10:32;;;;;;;11.43;6.82;;;;;;;;;;7392305;19;20635;-61
2022/05/23 09:13:00;;;;;;;16.52;7.05;;;;;;;;;;7393436;19;20355;-60
2022/05/23 09:15:29;;;;;;;10.02;7.15;;;;;;;;;;7392868;19;20018;-60
2022/05/23 09:18:02;;;;;;;11.25;7.10;;;;;;;;;;7395743;19;20018;-63
2022/05/23 09:20:34;;;;;;;11.52;7.28;;;;;;;;;;7391540;19;20024;-62
2022/05/23 09:23:06;;;;;;;10.35;7.25;;;;;;;;;;7393091;19;20011;-61
2022/05/23 09:25:34;;;;;;;9.00;6.88;;;;;;;;;;7392462;19;20472;-60
2022/05/23 09:28:09;;;;;;;11.77;7.18;;;;;;;;;;7392113;19;20011;-62
2022/05/23 09:30:42;;;;;;;9.98;6.43;;;;;;;;;;7392101;19;20605;-60
2022/05/23 09:33:14;;;;;;;19.88;8.48;;;;;;;;;;7393958;19;20015;-61
2022/05/23 09:35:50;;;;;;;13.40;6.53;;;;;;;;;;7392356;19;20022;-62
2022/05/23 09:38:21;;;;;;;10.90;6.65;;;;;;;;;;7392512;19;20509;-62
2022/05/23 09:47:44;;;;;;;9.18;6.50;;;;;;;;;;7389892;19;20011;-62
2022/05/23 09:49:49;;;;;;;18.48;5.53;;;;;;;;;;7400784;19;20337;-62
2022/05/23 09:52:20;;;;;;;9.85;5.30;;;;;;;;;;7402752;19;20082;-59
2022/05/23 09:54:52;;;;;;;9.80;5.40;;;;;;;;;;7397818;19;20055;-62
2022/05/23 09:57:23;;;;;;;6.07;4.87;;;;;;;;;;7396908;19;20480;-59
2022/05/23 09:59:57;;;;;;;9.68;6.10;;;;;;;;;;7398659;19;20018;-61
2022/05/23 10:02:34;;;;;;;10.55;6.00;;;;;;;;;;7397179;19;20069;-60
2022/05/23 10:05:05;;;;;;;9.48;6.43;;;;;;;;;;7399600;19;20010;-60
2022/05/23 10:07:36;;;;;;;8.98;6.40;;;;;;;;;;7399114;19;20043;-60
2022/05/23 10:10:06;;;;;;;11.52;6.38;;;;;;;;;;7397968;19;20022;-62
2022/05/23 10:12:43;;;;;;;10.50;6.00;;;;;;;;;;7399328;19;20022;-61
2022/05/23 10:15:15;;;;;;;14.45;6.72;;;;;;;;;;7397718;19;20040;-61
2022/05/23 10:17:46;;;;;;;50.78;8.27;;;;;;;;;;7398732;19;20019;-62
2022/05/23 10:20:26;;;;;;;8.40;5.70;;;;;;;;;;7397509;19;20022;-60
2022/05/23 10:22:56;;;;;;;26.90;6.15;;;;;;;;;;7402921;19;20011;-62
2022/05/23 10:25:26;;;;;;;9.63;5.30;;;;;;;;;;7396815;19;20021;-63
2022/05/23 10:28:00;;;;;;;12.55;6.32;;;;;;;;;;7398707;19;20475;-62
2022/05/23 10:30:33;;;;;;;9.98;5.50;;;;;;;;;;7397530;19;20010;-61
2022/05/23 10:33:05;;;;;;;9.50;5.63;;;;;;;;;;7397268;19;20017;-60
2022/05/23 10:35:38;;;;;;;15.48;6.65;;;;;;;;;;7397462;19;20018;-61
2022/05/23 10:43:35;;;;;;;8.82;5.90;;;;;;;;;;7396226;19;20032;-61
2022/05/23 10:46:04;;;;;;;11.82;7.57;;;;;;;;;;7396720;19;20054;-62
2022/05/23 10:48:41;;;;;;;10.00;6.50;;;;;;;;;;7398274;19;20499;-59
2022/05/23 10:51:18;;;;;;;27.73;7.38;;;;;;;;;;7396427;19;20036;-60
2022/05/23 10:53:51;;;;;;;9.80;6.70;;;;;;;;;;7398981;19;20034;-62
2022/05/23 10:56:22;;;;;;;9.82;6.75;;;;;;;;;;7393283;19;20054;-61
2022/05/23 10:58:54;;;;;;;10.00;6.95;;;;;;;;;;7398210;19;20022;-62
2022/05/23 11:01:29;;;;;;;13.70;7.97;;;;;;;;;;7396959;19;20518;-62
2022/05/23 11:04:00;;;;;;;14.55;7.38;;;;;;;;;;7397828;19;20070;-62
2022/05/23 11:06:37;;;;;;;12.18;7.60;;;;;;;;;;7399852;19;20023;-62
2022/05/23 11:09:09;;;;;;;15.48;8.13;;;;;;;;;;7398129;19;20017;-61
2022/05/23 11:11:46;;;;;;;19.17;7.82;;;;;;;;;;7399096;19;20011;-58
2022/05/23 11:14:18;;;;;;;14.77;8.23;;;;;;;;;;7397092;19;20632;-59
2022/05/23 11:16:53;;;;;;;11.90;7.77;;;;;;;;;;7395380;19;20014;-61
2022/05/23 11:19:26;;;;;;;13.00;8.38;;;;;;;;;;7395687;19;20021;-62
2022/05/23 11:22:02;;;;;;;12.02;8.30;;;;;;;;;;7397538;19;20015;-61
2022/05/23 11:24:36;;;;;;;12.30;7.65;;;;;;;;;;7396650;19;20018;-59
2022/05/23 11:35:28;;;;;;;10.63;6.68;;;;;;;;;;7395987;19;20007;-62
2022/05/23 11:38:01;;;;;;;13.95;8.50;;;;;;;;;;7397503;19;20014;-63
2022/05/23 11:40:29;;;;;;;;;;;;;;;;;;7395957;19;20022;-63
2022/05/23 11:43:01;;;;;;;10.77;7.10;;;;;;;;;;7395975;19;20301;-62
2022/05/23 11:48:34;;;;;;;10.18;4.68;;;;;;;;;;7392813;19;20014;-62
2022/05/23 11:51:10;;;;;;;8.73;4.60;;;;;;;;;;7394600;19;20017;-62
2022/05/23 11:53:46;;;;;;;6.18;4.20;;;;;;;;;;7395465;19;20021;-62
2022/05/23 11:56:33;;;;;;;4.22;3.60;;;;;;;;;;7395495;19;20018;-62
2022/05/23 11:59:02;;;;;;;6.25;3.60;;;;;;;;;;7395840;19;20018;-62
2022/05/23 12:01:31;;;;;;;7.15;3.28;;;;;;;;;;7395181;19;20512;-61
2022/05/23 12:04:10;;;;;;;9.60;3.95;;;;;;;;;;7395409;19;20086;-62
2022/05/23 12:06:41;;;;;;;7.60;3.92;;;;;;;;;;7393087;19;20026;-63
2022/05/23 12:09:27;;;;;;;8.77;4.50;;;;;;;;;;7394197;19;20023;-62
2022/05/23 12:12:15;;;;;;;7.55;4.20;;;;;;;;;;7393667;19;20573;-62
2022/05/23 12:14:55;;;;;;;5.13;3.58;;;;;;;;;;7393416;19;20034;-61
2022/05/23 12:17:27;;;;;;;8.23;4.40;;;;;;;;;;7393608;19;20017;-62
2022/05/23 12:19:56;;;;;;;16.90;4.70;;;;;;;;;;7393996;19;20048;-62
2022/05/23 12:22:35;;;;;;;9.93;4.18;;;;;;;;;;7395199;19;20003;-63
2022/05/23 12:25:21;;;;;;;6.95;3.83;;;;;;;;;;7394253;19;20022;-63
2022/05/23 12:28:17;;;;;;;10.30;3.72;;;;;;;;;;7394165;19;20082;-63
2022/05/23 12:31:06;;;;;;;8.02;3.63;;;;;;;;;;7392260;19;20018;-64
2022/05/23 12:33:35;;;;;;;6.65;3.35;;;;;;;;;;7393719;19;20021;-63
2022/05/23 12:36:10;;;;;;;8.65;3.42;;;;;;;;;;7393384;19;20014;-63
2022/05/23 12:38:58;;;;;;;5.50;3.28;;;;;;;;;;7393487;19;20034;-62
2022/05/23 12:41:36;;;;;;;7.22;3.08;;;;;;;;;;7394468;19;20014;-61
2022/05/23 12:44:14;;;;;;;12.30;3.72;;;;;;;;;;7395405;19;20013;-59
2022/05/23 12:46:53;;;;;;;8.00;3.53;;;;;;;;;;7392510;19;20037;-63
2022/05/23 12:49:30;;;;;;;9.40;3.30;;;;;;;;;;7391511;19;20022;-62
2022/05/23 12:52:05;;;;;;;7.55;3.42;;;;;;;;;;7393356;19;20050;-61
2022/05/23 12:54:37;;;;;;;9.13;3.88;;;;;;;;;;7394899;19;20002;-60
2022/05/23 12:57:23;;;;;;;8.53;3.20;;;;;;;;;;7392524;19;20025;-60
2022/05/23 12:59:53;;;;;;;16.50;4.00;;;;;;;;;;7391387;19;20566;-61
2022/05/23 13:02:33;;;;;;;10.15;4.00;;;;;;;;;;7393440;19;20048;-61
2022/05/23 13:05:06;;;;;;;10.40;4.63;;;;;;;;;;7397684;19;20022;-58
2022/05/23 13:07:38;;;;;;;9.35;3.67;;;;;;;;;;7393455;19;20017;-62
2022/05/23 13:10:09;;;;;;;6.70;3.75;;;;;;;;;;7392497;19;20015;-62
2022/05/23 13:12:40;;;;;;;9.60;3.92;;;;;;;;;;7392441;19;20033;-61
2022/05/23 13:15:10;;;;;;;11.88;4.35;;;;;;;;;;7392608;19;20046;-61
2022/05/23 13:17:43;;;;;;;7.43;4.38;;;;;;;;;;7392473;19;20085;-59
2022/05/23 13:23:03;;;;;;;8.23;4.32;;;;;;;;;;7392374;19;20090;-61
2022/05/23 13:25:36;;;;;;;37.63;6.45;;;;;;;;;;7392788;19;20374;-60
2022/05/23 13:28:09;;;;;;;10.95;4.15;;;;;;;;;;7393096;19;20025;-61
2022/05/23 13:30:39;;;;;;;13.88;5.30;;;;;;;;;;7391792;19;20022;-61
2022/05/23 13:33:14;;;;;;;13.52;4.97;;;;;;;;;;7390697;19;20475;-61
2022/05/23 13:35:43;;;;;;;12.77;4.47;;;;;;;;;;7392205;19;20511;-61
2022/05/23 13:38:20;;;;;;;10.65;3.65;;;;;;;;;;7390144;19;20022;-61
2022/05/23 13:40:51;;;;;;;7.57;3.92;;;;;;;;;;7391026;19;20014;-61
2022/05/23 13:43:22;;;;;;;12.13;4.22;;;;;;;;;;7391531;19;20086;-61
2022/05/23 13:45:57;;;;;;;7.57;3.53;;;;;;;;;;7390735;19;20023;-59
2022/05/23 13:48:31;;;;;;;12.95;3.83;;;;;;;;;;7392478;19;20090;-61
2022/05/23 13:51:03;;;;;;;16.90;3.80;;;;;;;;;;7391503;19;20014;-60
2022/05/23 13:53:34;;;;;;;6.50;3.50;;;;;;;;;;7393846;19;20359;-58
2022/05/23 13:56:04;;;;;;;11.05;3.55;;;;;;;;;;7390355;19;20366;-62
2022/05/23 13:58:34;;;;;;;7.25;3.40;;;;;;;;;;7390842;19;20022;-62
2022/05/23 14:01:06;;;;;;;8.63;3.60;;;;;;;;;;7390299;19;20483;-61
2022/05/23 14:03:39;;;;;;;9.30;4.10;;;;;;;;;;7390828;19;20014;-61
2022/05/23 14:06:09;;;;;;;9.55;3.60;;;;;;;;;;7389706;19;20015;-62
2022/05/23 14:08:38;;;;;;;8.40;4.88;;;;;;;;;;7392724;19;20052;-62
2022/05/23 14:11:09;;;;;;;7.10;3.92;;;;;;;;;;7390670;19;20015;-62
2022/05/23 14:13:38;;;;;;;6.63;4.20;;;;;;;;;;7391615;19;20017;-62
2022/05/23 14:16:07;;;;;;;9.32;4.65;;;;;;;;;;7393036;19;20011;-62
2022/05/23 14:18:38;;;;;;;7.32;3.85;;;;;;;;;;7391217;19;20014;-62
2022/05/23 14:21:07;;;;;;;8.13;4.20;;;;;;;;;;7390336;19;20010;-59
2022/05/23 14:23:36;;;;;;;8.18;5.15;;;;;;;;;;7390223;19;20053;-59
2022/05/23 14:26:09;;;;;;;9.90;4.78;;;;;;;;;;7394374;19;20010;-62
2022/05/23 14:28:51;;;;;;;8.95;5.03;;;;;;;;;;7391037;19;20019;-60
2022/05/23 14:31:36;;;;;;;6.68;4.20;;;;;;;;;;7395649;19;20022;-61
2022/05/23 14:34:09;;;;;;;8.77;5.05;;;;;;;;;;7397319;19;20025;-62
2022/05/23 14:36:37;;;;;;;;;;;;;;;;;;7394376;19;20019;-61
2022/05/23 14:39:07;;;;;;;12.32;5.30;;;;;;;;;;7396746;19;19946;-59
2022/05/23 14:41:37;;;;;;;7.88;4.70;;;;;;;;;;7400753;19;20017;-62
2022/05/23 14:44:06;;;;;;;7.53;4.30;;;;;;;;;;7396349;19;20015;-61
2022/05/23 14:46:36;;;;;;;8.15;4.60;;;;;;;;;;7395605;19;20026;-62
2022/05/23 14:49:05;;;;;;;10.38;4.60;;;;;;;;;;7396480;19;20017;-61
2022/05/23 14:51:38;;;;;;;7.25;4.90;;;;;;;;;;7396398;19;20022;-61
2022/05/23 14:57:00;;;;;;;7.20;4.55;;;;;;;;;;7395923;19;20015;-62
2022/05/23 15:02:16;;;;;;;7.72;4.80;;;;;;;;;;7396201;19;20010;-62
2022/05/23 15:04:47;;;;;;;9.82;5.32;;;;;;;;;;7394835;19;20019;-61
2022/05/23 15:07:21;;;;;;;9.93;5.28;;;;;;;;;;7396692;19;20082;-62
2022/05/23 15:09:49;;;;;;;8.32;4.82;;;;;;;;;;7395188;19;20014;-61
2022/05/23 15:12:22;;;;;;;10.27;4.57;;;;;;;;;;7394866;19;20025;-61
2022/05/23 15:14:51;;;;;;;9.82;4.88;;;;;;;;;;7394320;19;20007;-62
2022/05/23 15:17:21;;;;;;;9.00;4.95;;;;;;;;;;7393089;19;20025;-62
2022/05/23 15:19:49;;;;;;;8.50;4.80;;;;;;;;;;7393547;19;20025;-62
2022/05/23 15:22:22;;;;;;;7.93;4.55;;;;;;;;;;7397853;19;20014;-61
2022/05/23 15:24:50;;;;;;;;;;;;;;;;;;7396291;19;20019;-61
2022/05/23 15:27:23;;;;;;;7.40;4.95;;;;;;;;;;7393147;19;19952;-62
2022/05/23 15:29:51;;;;;;;11.02;5.50;;;;;;;;;;7394637;19;20011;-62
2022/05/23 15:32:21;;;;;;;10.32;6.18;;;;;;;;;;7393659;19;20343;-61
2022/05/23 15:34:49;;;;;;;11.40;6.40;;;;;;;;;;7394479;19;20021;-61
2022/05/23 15:37:17;;;;;;;10.00;6.60;;;;;;;;;;7394191;19;20351;-62
2022/05/23 15:39:48;;;;;;;11.52;6.45;;;;;;;;;;7393211;19;20031;-61
2022/05/23 15:42:24;;;;;;;9.18;6.88;;;;;;;;;;7393403;19;20026;-60
2022/05/23 15:44:53;;;;;;;9.32;6.85;;;;;;;;;;7394049;19;20021;-62
2022/05/23 15:47:24;;;;;;;11.88;8.02;;;;;;;;;;7391188;19;20011;-61
2022/05/23 15:49:53;;;;;;;8.80;7.20;;;;;;;;;;7392250;19;20011;-62
2022/05/23 15:52:21;;;;;;;10.63;7.43;;;;;;;;;;7393074;19;20371;-61
2022/05/23 15:54:53;;;;;;;11.18;6.93;;;;;;;;;;7398697;19;20030;-62
2022/05/23 15:57:26;;;;;;;11.68;7.60;;;;;;;;;;7392854;19;20040;-60
2022/05/23 15:59:55;;;;;;;15.55;8.15;;;;;;;;;;7392870;19;20015;-61
2022/05/23 16:02:23;;;;;;;13.05;7.88;;;;;;;;;;7393159;19;20320;-59
2022/05/23 16:04:52;;;;;;;13.13;8.10;;;;;;;;;;7393124;19;20034;-61
2022/05/23 16:07:20;;;;;;;10.48;7.63;;;;;;;;;;7391387;19;20029;-62
2022/05/23 16:09:49;;;;;;;15.27;8.68;;;;;;;;;;7392129;19;20019;-60
2022/05/23 16:12:20;;;;;;;13.45;7.65;;;;;;;;;;7392844;19;20025;-61
2022/05/23 16:14:49;;;;;;;24.98;8.20;;;;;;;;;;7392771;19;20094;-62
2022/05/23 16:17:17;;;;;;;9.50;7.72;;;;;;;;;;7390810;19;20049;-62
2022/05/23 16:19:46;;;;;;;10.98;8.18;;;;;;;;;;7393092;19;20543;-61
2022/05/23 16:22:18;;;;;;;14.35;8.55;;;;;;;;;;7392586;19;20018;-61